Time;durP1;ratioP1;P1;durP2;ratioP2;P2;SDS_P1;SDS_P2;PMS_P1;PMS_P2;Temp;Humidity;BMP_temperature;BMP_pressure;BME280_temperature;BME280_humidity;BME280_pressure;Samples;Min_cycle;Max_cycle;Signal;HPM_P1;HPM_P2
2021/03/19 00:00:15;;;;;;;;;;;7.20;91.10;;;;;;4345928;33;20019;-76
2021/03/19 00:02:47;;;;;;;;;;;7.10;91.10;;;;;;4346072;33;20019;-77
2021/03/19 00:05:17;;;;;;;;;;;7.10;91.40;;;;;;4346308;33;20399;-77
2021/03/19 00:07:52;;;;;;;;;;;7.20;91.10;;;;;;4346119;33;20409;-77
2021/03/19 00:10:21;;;;;;;;;;;7.10;91.00;;;;;;4346546;33;20019;-77
2021/03/19 00:12:51;;;;;;;;;;;7.10;90.90;;;;;;4332883;33;20060;-77
2021/03/19 00:15:20;;;;;;;;;;;7.10;90.90;;;;;;4346478;33;20391;-77
2021/03/19 00:17:49;;;;;;;;;;;7.10;90.90;;;;;;4346738;33;20136;-77
2021/03/19 00:20:32;;;;;;;;;;;7.10;90.90;;;;;;4333226;33;20116;-77
2021/03/19 00:23:04;;;;;;;;;;;7.10;90.90;;;;;;4346609;33;20009;-77
2021/03/19 00:25:31;;;;;;;;;;;7.10;90.80;;;;;;4346469;33;20361;-77
2021/03/19 00:28:13;;;;;;;;;;;7.10;90.90;;;;;;4332861;33;20011;-77
2021/03/19 00:30:43;;;;;;;;;;;7.10;90.80;;;;;;4322520;33;20332;-77
2021/03/19 00:33:12;;;;;;;;;;;7.10;90.80;;;;;;4349266;33;20013;-77
2021/03/19 00:35:47;;;;;;;;;;;7.10;90.80;;;;;;4336373;33;20031;-76
2021/03/19 00:38:17;;;;;;;;;;;7.10;90.80;;;;;;4349296;33;20023;-77
2021/03/19 00:40:46;;;;;;;;;;;7.10;90.80;;;;;;4349334;33;20023;-77
2021/03/19 00:43:19;;;;;;;;;;;7.10;91.10;;;;;;4335430;33;20009;-77
2021/03/19 00:45:51;;;;;;;;;;;7.10;90.80;;;;;;4323290;33;20015;-77
2021/03/19 00:48:17;;;;;;;;;;;7.10;90.80;;;;;;4335987;33;20064;-77
2021/03/19 00:50:54;;;;;;;;;;;7.10;90.80;;;;;;4349216;33;20068;-77
2021/03/19 00:53:26;;;;;;;;;;;7.10;90.80;;;;;;4349395;33;20422;-77
2021/03/19 00:55:56;;;;;;;;;;;7.10;90.80;;;;;;4348943;33;20009;-77
2021/03/19 00:58:23;;;;;;;;;;;7.00;90.70;;;;;;4335491;33;20361;-77
2021/03/19 01:00:50;;;;;;;;;;;7.10;90.70;;;;;;4349036;33;20046;-77
2021/03/19 01:03:22;;;;;;;;;;;7.00;90.70;;;;;;4347969;33;20075;-77
2021/03/19 01:06:01;;;;;;;;;;;7.00;91.00;;;;;;4323925;33;20001;-76
2021/03/19 01:08:33;;;;;;;;;;;7.00;90.60;;;;;;4335702;33;20015;-77
2021/03/19 01:11:03;;;;;;;;;;;7.00;90.60;;;;;;4323108;33;20008;-76
2021/03/19 01:13:32;;;;;;;;;;;7.00;90.70;;;;;;4348868;33;20013;-77
2021/03/19 01:16:05;;;;;;;;;;;7.00;90.70;;;;;;4347611;33;32453;-77
2021/03/19 01:18:35;;;;;;;;;;;7.00;90.70;;;;;;4347256;33;42744;-77
2021/03/19 01:21:14;;;;;;;;;;;7.00;90.70;;;;;;4335580;33;43302;-76
2021/03/19 01:23:42;;;;;;;;;;;7.00;90.70;;;;;;4347314;33;43226;-77
2021/03/19 01:26:12;;;;;;;;;;;7.00;90.70;;;;;;4334133;33;43572;-77
2021/03/19 01:28:39;;;;;;;;;;;7.00;90.70;;;;;;4346924;33;43338;-77
2021/03/19 01:31:19;;;;;;;;;;;7.00;90.70;;;;;;4336010;33;34982;-77
2021/03/19 01:33:47;;;;;;;;;;;7.00;90.60;;;;;;4347617;33;26049;-77
2021/03/19 01:36:13;;;;;;;;;;;7.00;90.60;;;;;;4321298;33;43586;-76
2021/03/19 01:38:40;;;;;;;;;;;7.00;90.60;;;;;;4333552;33;43601;-77
2021/03/19 01:41:07;;;;;;;;;;;7.00;90.60;;;;;;4333124;33;43008;-77
2021/03/19 01:43:35;;;;;;;;;;;7.00;90.70;;;;;;4333977;33;44613;-77
2021/03/19 01:46:21;;;;;;;;;;;6.90;90.60;;;;;;4348149;33;20009;-76
2021/03/19 01:49:06;;;;;;;;;;;7.00;90.70;;;;;;4348118;33;20020;-76
2021/03/19 01:51:51;;;;;;;;;;;7.00;90.60;;;;;;4347447;33;20013;-76
2021/03/19 01:54:37;;;;;;;;;;;7.00;90.60;;;;;;4348234;33;20010;-77
2021/03/19 01:57:22;;;;;;;;;;;6.90;90.60;;;;;;4348018;33;20020;-77
2021/03/19 02:00:08;;;;;;;;;;;6.90;90.60;;;;;;4347837;33;20009;-76
2021/03/19 02:02:53;;;;;;;;;;;6.90;90.60;;;;;;4334039;33;20009;-77
2021/03/19 02:05:39;;;;;;;;;;;6.90;90.60;;;;;;4334400;33;23950;-77
2021/03/19 02:08:25;;;;;;;;;;;6.90;90.60;;;;;;4346767;33;43004;-77
2021/03/19 02:11:10;;;;;;;;;;;6.90;90.60;;;;;;4347892;33;20001;-76
2021/03/19 02:13:55;;;;;;;;;;;6.90;90.60;;;;;;4346909;33;43369;-77
2021/03/19 02:16:41;;;;;;;;;;;6.90;90.50;;;;;;4347539;33;20004;-76
2021/03/19 02:19:26;;;;;;;;;;;6.90;90.50;;;;;;4347412;33;22969;-76
2021/03/19 02:22:14;;;;;;;;;;;6.90;90.50;;;;;;4347678;33;20020;-76
2021/03/19 02:25:00;;;;;;;;;;;6.90;90.50;;;;;;4347316;33;20001;-76
2021/03/19 02:27:45;;;;;;;;;;;6.90;90.50;;;;;;4333954;33;20529;-77
2021/03/19 02:30:30;;;;;;;;;;;6.80;90.50;;;;;;4347671;33;20008;-77
2021/03/19 02:32:57;;;;;;;;;;;6.80;90.40;;;;;;4347317;33;20222;-76
2021/03/19 02:35:27;;;;;;;;;;;6.80;90.40;;;;;;4320670;33;41422;-76
2021/03/19 02:37:56;;;;;;;;;;;6.80;90.40;;;;;;4345906;33;43851;-76
2021/03/19 02:40:26;;;;;;;;;;;6.80;90.30;;;;;;4346380;33;42654;-77
2021/03/19 02:43:04;;;;;;;;;;;6.80;90.30;;;;;;4347765;33;20020;-77
2021/03/19 02:45:33;;;;;;;;;;;6.80;90.30;;;;;;4333988;33;19994;-77
2021/03/19 02:47:59;;;;;;;;;;;6.80;90.20;;;;;;4346774;33;20016;-76
2021/03/19 02:50:26;;;;;;;;;;;6.70;90.20;;;;;;4334053;33;20009;-77
2021/03/19 02:52:53;;;;;;;;;;;6.80;90.20;;;;;;4333837;33;20006;-76
2021/03/19 02:55:22;;;;;;;;;;;6.80;90.10;;;;;;4346982;33;20013;-76
2021/03/19 02:57:58;;;;;;;;;;;6.80;90.10;;;;;;4347069;33;20021;-76
2021/03/19 03:00:28;;;;;;;;;;;6.80;90.10;;;;;;4333516;33;20363;-76
2021/03/19 03:02:58;;;;;;;;;;;6.80;90.10;;;;;;4321457;33;20006;-76
2021/03/19 03:05:31;;;;;;;;;;;6.80;90.10;;;;;;4346969;33;20341;-76
2021/03/19 03:08:04;;;;;;;;;;;6.80;90.10;;;;;;4347366;33;20005;-76
2021/03/19 03:10:37;;;;;;;;;;;6.70;90.10;;;;;;4346901;33;20021;-76
2021/03/19 03:13:06;;;;;;;;;;;6.70;90.10;;;;;;4333800;33;20061;-76
2021/03/19 03:15:36;;;;;;;;;;;6.70;90.10;;;;;;4347117;33;20020;-76
2021/03/19 03:18:03;;;;;;;;;;;6.70;90.00;;;;;;4333219;33;20005;-76
2021/03/19 03:20:32;;;;;;;;;;;6.70;90.00;;;;;;4321426;33;20011;-76
2021/03/19 03:23:05;;;;;;;;;;;6.70;90.00;;;;;;4333528;33;20028;-77
2021/03/19 03:25:35;;;;;;;;;;;6.70;90.00;;;;;;4346382;33;23076;-76
2021/03/19 03:28:04;;;;;;;;;;;6.70;90.00;;;;;;4347045;33;20005;-76
2021/03/19 03:30:38;;;;;;;;;;;6.70;89.90;;;;;;4346888;33;20027;-76
2021/03/19 03:33:08;;;;;;;;;;;6.70;90.00;;;;;;4333840;33;20013;-76
2021/03/19 03:35:37;;;;;;;;;;;6.70;90.00;;;;;;4346384;33;20015;-76
2021/03/19 03:38:05;;;;;;;;;;;6.70;90.00;;;;;;4346239;33;20009;-76
2021/03/19 03:40:53;;;;;;;;;;;6.60;90.00;;;;;;4333292;33;20013;-76
2021/03/19 03:43:22;;;;;;;;;;;6.70;90.00;;;;;;4346629;33;20017;-76
2021/03/19 03:45:52;;;;;;;;;;;6.70;90.00;;;;;;4346509;33;20017;-77
2021/03/19 03:48:21;;;;;;;;;;;6.70;90.00;;;;;;4332647;33;20021;-76
2021/03/19 03:50:51;;;;;;;;;;;6.70;90.00;;;;;;4346318;33;20020;-76
2021/03/19 03:53:21;;;;;;;;;;;6.70;90.00;;;;;;4346132;33;20064;-77
2021/03/19 03:55:48;;;;;;;;;;;6.60;90.00;;;;;;4346682;33;20436;-76
2021/03/19 03:58:18;;;;;;;;;;;6.70;89.90;;;;;;4332784;33;20055;-76
2021/03/19 04:00:47;;;;;;;;;;;6.60;89.80;;;;;;4346427;33;20103;-76
2021/03/19 04:03:16;;;;;;;;;;;6.60;89.80;;;;;;4345945;33;20009;-76
2021/03/19 04:05:49;;;;;;;;;;;6.60;89.80;;;;;;4332098;33;34865;-77
2021/03/19 04:08:20;;;;;;;;;;;6.60;89.80;;;;;;4345439;33;43675;-77
2021/03/19 04:10:51;;;;;;;;;;;6.60;89.70;;;;;;4333036;33;20106;-77
2021/03/19 04:13:21;;;;;;;;;;;6.60;89.80;;;;;;4333315;33;20083;-76
2021/03/19 04:15:50;;;;;;;;;;;6.60;89.70;;;;;;4345820;33;20086;-76
2021/03/19 04:18:20;;;;;;;;;;;6.60;89.70;;;;;;4346392;33;20012;-77
2021/03/19 04:20:48;;;;;;;;;;;6.60;89.60;;;;;;4345000;33;37772;-77
2021/03/19 04:23:30;;;;;;;;;;;6.60;89.70;;;;;;4334314;33;20418;-76
2021/03/19 04:25:57;;;;;;;;;;;6.60;89.60;;;;;;4346383;33;20019;-76
2021/03/19 04:28:28;;;;;;;;;;;6.60;89.50;;;;;;4345628;33;20009;-77
2021/03/19 04:30:54;;;;;;;;;;;6.60;89.60;;;;;;4332742;33;20370;-77
2021/03/19 04:33:23;;;;;;;;;;;6.60;89.60;;;;;;4333157;33;20021;-76
2021/03/19 04:36:03;;;;;;;;;;;6.60;89.60;;;;;;4346341;33;20005;-76
2021/03/19 04:38:29;;;;;;;;;;;6.50;89.60;;;;;;4346080;33;20407;-76
2021/03/19 04:40:56;;;;;;;;;;;6.50;89.60;;;;;;4346384;33;20316;-76
2021/03/19 04:43:23;;;;;;;;;;;6.50;89.60;;;;;;4345427;33;23428;-77
2021/03/19 04:45:50;;;;;;;;;;;6.50;89.60;;;;;;4345840;33;20009;-76
2021/03/19 04:48:19;;;;;;;;;;;6.50;89.50;;;;;;4332976;33;20031;-77
2021/03/19 04:50:51;;;;;;;;;;;6.50;89.60;;;;;;4332602;33;20005;-77
2021/03/19 04:53:18;;;;;;;;;;;6.50;89.50;;;;;;4333004;33;20072;-76
2021/03/19 04:55:44;;;;;;;;;;;6.50;89.50;;;;;;4332576;33;20051;-77
2021/03/19 04:58:11;;;;;;;;;;;6.50;89.40;;;;;;4345940;33;20455;-77
2021/03/19 05:00:38;;;;;;;;;;;6.40;89.30;;;;;;4345662;33;20091;-77
2021/03/19 05:03:08;;;;;;;;;;;6.50;89.40;;;;;;4345393;33;20010;-76
2021/03/19 05:05:37;;;;;;;;;;;6.40;89.30;;;;;;4332812;33;20009;-76
2021/03/19 05:08:07;;;;;;;;;;;6.50;89.30;;;;;;4346223;33;20053;-76
2021/03/19 05:10:37;;;;;;;;;;;6.50;89.30;;;;;;4345903;33;20024;-76
2021/03/19 05:13:05;;;;;;;;;;;6.40;89.20;;;;;;4332991;33;20009;-76
2021/03/19 05:15:32;;;;;;;;;;;6.40;89.20;;;;;;4345470;33;21319;-76
2021/03/19 05:17:59;;;;;;;;;;;6.40;89.10;;;;;;4334892;33;20433;-76
2021/03/19 05:20:26;;;;;;;;;;;6.40;89.10;;;;;;4348678;33;20042;-76
2021/03/19 05:22:55;;;;;;;;;;;6.40;89.70;;;;;;4334786;33;20382;-77
2021/03/19 05:25:31;;;;;;;;;;;6.40;89.00;;;;;;4348334;33;20015;-76
2021/03/19 05:28:00;;;;;;;;;;;6.40;89.10;;;;;;4348695;33;20052;-76
2021/03/19 05:30:30;;;;;;;;;;;6.40;89.10;;;;;;4348503;33;20017;-76
2021/03/19 05:32:57;;;;;;;;;;;6.40;89.10;;;;;;4348289;33;20014;-77
2021/03/19 05:35:24;;;;;;;;;;;6.40;89.10;;;;;;4348218;33;20004;-77
2021/03/19 05:37:56;;;;;;;;;;;6.40;89.00;;;;;;4334918;33;20419;-76
2021/03/19 05:40:30;;;;;;;;;;;6.30;89.00;;;;;;4348214;33;20020;-77
2021/03/19 05:43:16;;;;;;;;;;;6.30;89.00;;;;;;4322321;33;20014;-76
2021/03/19 05:45:49;;;;;;;;;;;6.30;88.80;;;;;;4348145;33;20382;-76
2021/03/19 05:48:16;;;;;;;;;;;6.30;88.90;;;;;;4334687;33;20020;-77
2021/03/19 05:50:45;;;;;;;;;;;6.30;88.70;;;;;;4347959;33;20005;-76
2021/03/19 05:53:32;;;;;;;;;;;6.30;88.80;;;;;;4347772;33;20012;-76
2021/03/19 05:56:01;;;;;;;;;;;6.30;88.80;;;;;;4334585;33;20369;-76
2021/03/19 05:58:29;;;;;;;;;;;6.20;88.80;;;;;;4334320;33;20090;-76
2021/03/19 06:00:59;;;;;;;;;;;6.30;88.80;;;;;;4347759;33;20411;-76
2021/03/19 06:03:32;;;;;;;;;;;6.20;88.70;;;;;;4334566;33;20005;-76
2021/03/19 06:06:03;;;;;;;;;;;6.20;88.70;;;;;;4347941;33;20013;-76
2021/03/19 06:08:34;;;;;;;;;;;6.20;88.50;;;;;;4347773;33;20017;-76
2021/03/19 06:11:06;;;;;;;;;;;6.20;88.50;;;;;;4347768;33;20710;-76
2021/03/19 06:13:43;;;;;;;;;;;6.20;88.60;;;;;;4334115;33;20440;-76
2021/03/19 06:16:16;;;;;;;;;;;6.20;88.50;;;;;;4334035;33;20013;-76
2021/03/19 06:18:56;;;;;;;;;;;6.20;88.70;;;;;;4334335;33;20398;-76
2021/03/19 06:21:33;;;;;;;;;;;6.20;88.50;;;;;;4334329;33;20008;-76
2021/03/19 06:24:15;;;;;;;;;;;6.20;88.50;;;;;;4346893;33;23892;-76
2021/03/19 06:26:44;;;;;;;;;;;6.20;88.60;;;;;;4347514;33;20017;-76
2021/03/19 06:29:16;;;;;;;;;;;6.20;88.70;;;;;;4333761;33;20047;-76
2021/03/19 06:32:02;;;;;;;;;;;6.20;88.40;;;;;;4333953;33;20369;-76
2021/03/19 06:34:29;;;;;;;;;;;6.10;88.40;;;;;;4347954;33;20023;-76
2021/03/19 06:37:04;;;;;;;;;;;6.10;88.50;;;;;;4347545;33;20009;-76
2021/03/19 06:39:48;;;;;;;;;;;6.10;88.40;;;;;;4333645;33;20005;-76
2021/03/19 06:42:18;;;;;;;;;;;6.10;88.50;;;;;;4333733;33;26060;-76
2021/03/19 06:45:00;;;;;;;;;;;6.10;88.50;;;;;;4320781;33;38166;-76
2021/03/19 06:47:44;;;;;;;;;;;6.10;88.40;;;;;;4347242;33;20055;-76
2021/03/19 06:50:12;;;;;;;;;;;6.10;88.40;;;;;;4347211;33;20017;-76
2021/03/19 06:52:40;;;;;;;;;;;6.10;88.50;;;;;;4333002;33;20411;-76
2021/03/19 06:55:36;;;;;;;;;;;6.10;88.40;;;;;;4347049;33;20505;-76
2021/03/19 06:58:03;;;;;;;;;;;6.10;88.40;;;;;;4346774;33;20021;-76
2021/03/19 07:00:40;;;;;;;;;;;6.10;88.40;;;;;;4334078;33;20013;-77
2021/03/19 07:03:07;;;;;;;;;;;6.10;88.50;;;;;;4332962;33;24859;-76
2021/03/19 07:05:44;;;;;;;;;;;6.00;88.40;;;;;;4347269;33;20023;-77
2021/03/19 07:08:26;;;;;;;;;;;6.10;88.50;;;;;;4332430;33;42966;-76
2021/03/19 07:11:05;;;;;;;;;;;6.00;88.40;;;;;;4346000;33;44060;-76
2021/03/19 07:13:45;;;;;;;;;;;6.00;88.30;;;;;;4345901;33;45608;-76
2021/03/19 07:16:12;;;;;;;;;;;6.00;88.40;;;;;;4333072;33;43286;-76
2021/03/19 07:18:57;;;;;;;;;;;6.00;88.50;;;;;;4346561;33;21478;-77
2021/03/19 07:21:24;;;;;;;;;;;6.00;88.40;;;;;;4346517;33;20043;-76
2021/03/19 07:23:59;;;;;;;;;;;6.00;88.40;;;;;;4347038;33;20011;-76
2021/03/19 07:26:34;;;;;;;;;;;6.00;88.40;;;;;;4333755;33;20017;-76
2021/03/19 07:29:19;;;;;;;;;;;6.00;88.50;;;;;;4333804;33;20011;-76
2021/03/19 07:32:09;;;;;;;;;;;6.00;88.40;;;;;;4332952;33;23409;-76
2021/03/19 07:34:38;;;;;;;;;;;6.00;88.50;;;;;;4346622;33;20753;-76
2021/03/19 07:37:28;;;;;;;;;;;6.00;88.60;;;;;;4333000;33;20312;-76
2021/03/19 07:40:03;;;;;;;;;;;6.00;88.60;;;;;;4345958;33;20386;-76
2021/03/19 07:42:39;;;;;;;;;;;6.00;88.50;;;;;;4346517;33;20016;-76
2021/03/19 07:45:17;;;;;;;;;;;6.00;88.40;;;;;;4345989;33;36561;-76
2021/03/19 07:47:56;;;;;;;;;;;6.00;88.40;;;;;;4345677;33;41141;-76
2021/03/19 07:50:32;;;;;;;;;;;6.00;88.40;;;;;;4345609;33;43357;-76
2021/03/19 07:53:02;;;;;;;;;;;6.00;88.40;;;;;;4345890;33;31942;-76
2021/03/19 07:55:36;;;;;;;;;;;6.00;88.50;;;;;;4345196;33;36673;-76
2021/03/19 07:58:27;;;;;;;;;;;6.00;88.50;;;;;;4345723;33;41993;-76
2021/03/19 08:01:12;;;;;;;;;;;6.00;88.50;;;;;;4345587;33;39698;-76
2021/03/19 08:03:44;;;;;;;;;;;6.00;88.60;;;;;;4345409;33;44593;-76
2021/03/19 08:06:20;;;;;;;;;;;6.00;88.40;;;;;;4345756;33;40745;-76
2021/03/19 08:09:07;;;;;;;;;;;6.00;88.40;;;;;;4332572;33;44676;-77
2021/03/19 08:11:45;;;;;;;;;;;6.00;88.40;;;;;;4345484;33;43627;-76
2021/03/19 08:14:18;;;;;;;;;;;6.00;88.30;;;;;;4344840;33;43350;-76
2021/03/19 08:17:00;;;;;;;;;;;6.00;88.20;;;;;;4345347;33;43200;-76
2021/03/19 08:19:53;;;;;;;;;;;6.00;88.30;;;;;;4332284;33;20013;-76
2021/03/19 08:22:32;;;;;;;;;;;6.00;88.40;;;;;;4320876;33;20386;-76
2021/03/19 08:25:31;;;;;;;;;;;5.90;88.30;;;;;;4321454;33;20005;-76
2021/03/19 08:28:01;;;;;;;;;;;6.00;88.40;;;;;;4320827;33;20005;-76
2021/03/19 08:30:56;;;;;;;;;;;6.00;88.40;;;;;;4320970;33;20013;-76
2021/03/19 08:33:55;;;;;;;;;;;6.00;88.40;;;;;;4321717;33;20009;-76
2021/03/19 08:36:56;;;;;;;;;;;6.00;88.50;;;;;;4320857;33;20385;-76
2021/03/19 08:39:48;;;;;;;;;;;6.00;88.40;;;;;;4333936;33;20061;-76
2021/03/19 08:42:33;;;;;;;;;;;6.00;88.30;;;;;;4320151;33;20088;-76
2021/03/19 08:45:09;;;;;;;;;;;6.00;88.40;;;;;;4321231;33;20429;-76
2021/03/19 08:47:53;;;;;;;;;;;6.00;88.50;;;;;;4332655;33;19997;-76
2021/03/19 08:50:27;;;;;;;;;;;6.00;88.30;;;;;;4332094;33;42760;-76
2021/03/19 08:53:14;;;;;;;;;;;6.00;88.40;;;;;;4334000;33;43459;-76
2021/03/19 08:55:43;;;;;;;;;;;6.00;88.30;;;;;;4347913;33;42969;-76
2021/03/19 08:58:28;;;;;;;;;;;6.00;88.20;;;;;;4348317;33;20021;-76
2021/03/19 09:00:59;;;;;;;;;;;6.00;88.20;;;;;;4334894;33;43295;-76
2021/03/19 09:03:42;;;;;;;;;;;6.00;88.20;;;;;;4347647;33;44318;-76
2021/03/19 09:06:13;;;;;;;;;;;6.00;88.20;;;;;;4347884;33;43277;-76
2021/03/19 09:08:45;;;;;;;;;;;6.00;88.10;;;;;;4348124;33;44220;-76
2021/03/19 09:11:22;;;;;;;;;;;6.00;88.20;;;;;;4347574;33;43655;-76
2021/03/19 09:14:04;;;;;;;;;;;6.00;88.10;;;;;;4335214;33;20065;-75
2021/03/19 09:16:50;;;;;;;;;;;6.00;88.00;;;;;;4347597;33;43516;-76
2021/03/19 09:19:32;;;;;;;;;;;6.00;88.00;;;;;;4347293;33;44325;-77
2021/03/19 09:22:17;;;;;;;;;;;6.00;87.90;;;;;;4348188;33;20020;-76
2021/03/19 09:25:04;;;;;;;;;;;6.10;87.90;;;;;;4347851;33;20410;-75
2021/03/19 09:27:34;;;;;;;;;;;6.00;87.70;;;;;;4340437;33;20001;-76
2021/03/19 09:30:08;;;;;;;;;;;6.00;87.80;;;;;;4348408;33;20025;-76
2021/03/19 09:32:45;;;;;;;;;;;6.00;87.80;;;;;;4334443;33;23004;-78
2021/03/19 09:35:14;;;;;;;;;;;6.10;87.80;;;;;;4348556;33;20437;-76
2021/03/19 09:37:40;;;;;;;;;;;6.10;87.70;;;;;;4347976;33;20009;-77
2021/03/19 09:40:07;;;;;;;;;;;6.10;87.60;;;;;;4334506;33;20004;-76
2021/03/19 09:42:37;;;;;;;;;;;6.10;87.60;;;;;;4348083;33;20381;-76
2021/03/19 09:45:07;;;;;;;;;;;6.10;87.40;;;;;;4348468;33;20354;-75
2021/03/19 09:47:42;;;;;;;;;;;6.10;87.50;;;;;;4334773;33;20014;-76
2021/03/19 09:50:19;;;;;;;;;;;6.10;87.50;;;;;;4348369;33;20044;-76
2021/03/19 09:53:14;;;;;;;;;;;6.10;87.10;;;;;;4334205;33;20069;-76
2021/03/19 09:55:47;;;;;;;;;;;6.10;87.00;;;;;;4330698;33;20001;-76
2021/03/19 09:58:20;;;;;;;;;;;6.10;87.10;;;;;;4347839;33;20001;-76
2021/03/19 10:00:56;;;;;;;;;;;6.10;87.20;;;;;;4348315;33;20064;-76
2021/03/19 10:03:23;;;;;;;;;;;6.10;87.10;;;;;;4333944;33;20032;-76
2021/03/19 10:05:50;;;;;;;;;;;6.10;86.90;;;;;;4347976;33;20001;-76
2021/03/19 10:08:30;;;;;;;;;;;6.10;86.50;;;;;;4322460;33;20003;-81
2021/03/19 10:11:10;;;;;;;;;;;6.20;86.70;;;;;;4347814;33;20020;-83
2021/03/19 10:13:40;;;;;;;;;;;6.20;86.70;;;;;;4322156;33;19998;-78
2021/03/19 10:16:08;;;;;;;;;;;6.20;86.50;;;;;;4322435;33;20005;-77
2021/03/19 10:18:51;;;;;;;;;;;6.20;86.40;;;;;;4324108;33;20354;-76
2021/03/19 10:21:21;;;;;;;;;;;6.20;86.60;;;;;;4347886;33;20065;-77
2021/03/19 10:23:53;;;;;;;;;;;6.20;86.50;;;;;;4347205;33;20020;-77
2021/03/19 10:26:20;;;;;;;;;;;6.20;86.20;;;;;;4334933;33;20019;-77
2021/03/19 10:28:51;;;;;;;;;;;6.30;86.20;;;;;;4346538;33;37132;-77
2021/03/19 10:31:20;;;;;;;;;;;6.30;86.10;;;;;;4346892;33;44296;-76
2021/03/19 10:34:05;;;;;;;;;;;6.30;85.70;;;;;;4333252;33;44654;-76
2021/03/19 10:36:41;;;;;;;;;;;6.30;85.60;;;;;;4346471;33;44714;-75
2021/03/19 10:39:11;;;;;;;;;;;6.30;85.60;;;;;;4346813;33;35292;-76
2021/03/19 10:41:42;;;;;;;;;;;6.30;85.60;;;;;;4346754;33;32582;-76
2021/03/19 10:44:11;;;;;;;;;;;6.30;85.10;;;;;;4346600;33;45000;-75
2021/03/19 10:46:48;;;;;;;;;;;6.30;84.00;;;;;;4333097;33;41491;-76
2021/03/19 10:49:33;;;;;;;;;;;6.30;83.80;;;;;;4346316;33;44685;-75
2021/03/19 10:52:09;;;;;;;;;;;6.30;83.70;;;;;;4347466;33;20015;-76
2021/03/19 10:54:46;;;;;;;;;;;6.30;83.50;;;;;;4333467;33;20444;-76
2021/03/19 10:57:13;;;;;;;;;;;6.30;83.30;;;;;;4346988;33;20005;-76
2021/03/19 10:59:42;;;;;;;;;;;6.30;83.30;;;;;;4333747;33;20092;-76
2021/03/19 11:02:12;;;;;;;;;;;6.30;83.10;;;;;;4347047;33;20013;-76
2021/03/19 11:04:43;;;;;;;;;;;6.30;82.80;;;;;;4347196;33;20115;-76
2021/03/19 11:07:22;;;;;;;;;;;6.30;82.40;;;;;;4347217;33;20315;-76
2021/03/19 11:10:01;;;;;;;;;;;6.30;82.00;;;;;;4347193;33;20078;-76
2021/03/19 11:12:46;;;;;;;;;;;6.30;81.80;;;;;;4334290;33;20407;-76
2021/03/19 11:15:13;;;;;;;;;;;6.30;81.80;;;;;;4332342;33;20055;-76
2021/03/19 11:17:42;;;;;;;;;;;6.30;82.10;;;;;;4333284;33;20056;-76
2021/03/19 11:20:20;;;;;;;;;;;6.30;82.00;;;;;;4346967;33;20462;-76
2021/03/19 11:22:47;;;;;;;;;;;6.30;81.70;;;;;;4345950;33;43962;-76
2021/03/19 11:25:17;;;;;;;;;;;6.40;80.90;;;;;;4332679;33;40975;-76
2021/03/19 11:27:47;;;;;;;;;;;6.40;80.50;;;;;;4321400;33;20011;-76
2021/03/19 11:30:23;;;;;;;;;;;6.40;80.80;;;;;;4346998;33;20020;-76
2021/03/19 11:33:03;;;;;;;;;;;6.40;80.80;;;;;;4346852;33;20057;-76
2021/03/19 11:35:31;;;;;;;;;;;6.40;80.70;;;;;;4334195;33;20008;-76
2021/03/19 11:38:03;;;;;;;;;;;6.50;80.30;;;;;;4347181;33;20073;-76
2021/03/19 11:40:35;;;;;;;;;;;6.50;80.50;;;;;;4333450;33;20001;-76
2021/03/19 11:43:06;;;;;;;;;;;6.50;80.70;;;;;;4346545;33;20013;-76
2021/03/19 11:45:44;;;;;;;;;;;6.50;80.80;;;;;;4346891;33;20061;-76
2021/03/19 11:48:28;;;;;;;;;;;6.50;80.80;;;;;;4347063;33;20390;-76
2021/03/19 11:51:07;;;;;;;;;;;6.60;80.50;;;;;;4346592;33;20015;-76
2021/03/19 11:53:34;;;;;;;;;;;6.60;80.50;;;;;;4346515;33;20443;-77
2021/03/19 11:56:09;;;;;;;;;;;6.60;80.50;;;;;;4334647;33;20399;-76
2021/03/19 11:58:39;;;;;;;;;;;6.60;80.30;;;;;;4333687;33;20056;-76
2021/03/19 12:01:07;;;;;;;;;;;6.70;80.40;;;;;;4346279;33;20025;-76
2021/03/19 12:03:38;;;;;;;;;;;6.70;80.30;;;;;;4346417;33;20361;-76
2021/03/19 12:06:09;;;;;;;;;;;6.70;80.20;;;;;;4346762;33;20009;-76
2021/03/19 12:08:39;;;;;;;;;;;6.70;80.20;;;;;;4333097;33;20002;-77
2021/03/19 12:11:07;;;;;;;;;;;6.80;80.40;;;;;;4346017;33;20447;-78
2021/03/19 12:13:37;;;;;;;;;;;6.80;80.20;;;;;;4333164;33;20387;-76
2021/03/19 12:16:04;;;;;;;;;;;6.80;79.90;;;;;;4332941;33;20021;-77
2021/03/19 12:18:31;;;;;;;;;;;6.90;80.00;;;;;;4346209;33;20039;-75
2021/03/19 12:20:58;;;;;;;;;;;6.90;79.50;;;;;;4346540;33;20001;-76
2021/03/19 12:23:25;;;;;;;;;;;6.90;79.60;;;;;;4332954;33;20006;-77
2021/03/19 12:25:52;;;;;;;;;;;6.90;79.30;;;;;;4347342;33;20020;-84
2021/03/19 12:28:20;;;;;;;;;;;6.90;79.40;;;;;;4336028;33;20016;-82
2021/03/19 12:30:47;;;;;;;;;;;6.90;79.50;;;;;;4323688;33;19998;-84
2021/03/19 12:33:17;;;;;;;;;;;7.00;79.50;;;;;;4336240;33;20009;-75
2021/03/19 12:35:44;;;;;;;;;;;7.00;79.10;;;;;;4348668;33;20009;-75
2021/03/19 12:38:12;;;;;;;;;;;7.00;78.90;;;;;;4348382;33;20051;-76
2021/03/19 12:40:39;;;;;;;;;;;7.00;78.60;;;;;;4323075;33;20073;-77
2021/03/19 12:43:10;;;;;;;;;;;7.00;78.10;;;;;;4335645;33;20028;-79
2021/03/19 12:45:36;;;;;;;;;;;7.10;78.30;;;;;;4335367;33;20013;-78
2021/03/19 12:48:05;;;;;;;;;;;7.10;78.40;;;;;;4335502;33;20001;-76
2021/03/19 12:50:35;;;;;;;;;;;7.10;78.20;;;;;;4348873;33;20047;-77
2021/03/19 12:53:04;;;;;;;;;;;7.10;78.20;;;;;;4335899;33;20013;-75
2021/03/19 12:55:31;;;;;;;;;;;7.10;78.20;;;;;;4334998;33;20015;-76
2021/03/19 12:58:03;;;;;;;;;;;7.20;78.10;;;;;;4348377;33;20017;-75
2021/03/19 13:00:32;;;;;;;;;;;7.20;78.20;;;;;;4348660;33;20047;-76
2021/03/19 13:03:00;;;;;;;;;;;7.20;78.00;;;;;;4348653;33;20009;-76
2021/03/19 13:05:28;;;;;;;;;;;7.30;77.70;;;;;;4335174;33;19997;-77
2021/03/19 13:07:56;;;;;;;;;;;7.30;77.30;;;;;;4348422;33;20039;-77
2021/03/19 13:10:28;;;;;;;;;;;7.30;77.30;;;;;;4348974;33;20015;-77
2021/03/19 13:12:55;;;;;;;;;;;7.30;77.30;;;;;;4348983;33;20005;-75
2021/03/19 13:15:26;;;;;;;;;;;7.30;77.30;;;;;;4335888;33;20084;-77
2021/03/19 13:17:53;;;;;;;;;;;7.30;77.30;;;;;;4347831;33;43275;-77
2021/03/19 13:20:21;;;;;;;;;;;7.40;77.40;;;;;;4335535;33;20136;-77
2021/03/19 13:22:48;;;;;;;;;;;7.40;77.40;;;;;;4333872;33;40323;-74
2021/03/19 13:25:21;;;;;;;;;;;7.50;77.30;;;;;;4347484;33;43691;-76
2021/03/19 13:39:40;;;;;;;;;;;7.60;76.00;;;;;;4574726;27;20002;-78
2021/03/19 13:42:07;;;;;;;;;;;7.60;76.00;;;;;;4320180;33;20017;-78
2021/03/19 13:44:35;;;;;;;;;;;7.60;76.20;;;;;;4333284;33;20017;-78
2021/03/19 13:47:03;;;;;;;;;;;7.60;76.00;;;;;;4320361;33;19998;-78
2021/03/19 13:49:33;;;;;;;;;;;7.60;75.80;;;;;;4332145;33;19997;-78
2021/03/19 13:52:03;;;;;;;;;;;7.60;75.90;;;;;;4333594;33;20009;-78
2021/03/19 13:54:30;;;;;;;;;;;7.70;76.00;;;;;;4333168;33;20017;-78
2021/03/19 13:57:04;;;;;;;;;;;7.80;76.00;;;;;;4333185;33;20002;-77
2021/03/19 13:59:33;;;;;;;;;;;7.80;75.90;;;;;;4319662;33;20001;-78
2021/03/19 14:02:03;;;;;;;;;;;7.80;75.70;;;;;;4333452;33;20006;-77
2021/03/19 14:04:34;;;;;;;;;;;7.80;75.50;;;;;;4318778;33;40345;-77
2021/03/19 14:07:02;;;;;;;;;;;7.90;75.20;;;;;;4332107;33;34785;-76
2021/03/19 14:09:29;;;;;;;;;;;7.90;75.20;;;;;;4319007;33;44690;-76
2021/03/19 14:11:58;;;;;;;;;;;7.90;75.20;;;;;;4320085;33;20027;-75
2021/03/19 14:14:25;;;;;;;;;;;7.90;75.00;;;;;;4331602;33;44147;-76
2021/03/19 14:16:51;;;;;;;;;;;8.00;74.70;;;;;;4331602;33;44682;-75
2021/03/19 14:19:18;;;;;;;;;;;8.00;74.70;;;;;;4331855;33;44248;-76
2021/03/19 14:21:50;;;;;;;;;;;8.00;74.50;;;;;;4318395;33;43340;-76
2021/03/19 14:24:19;;;;;;;;;;;8.00;74.50;;;;;;4318724;33;42313;-75
2021/03/19 14:26:45;;;;;;;;;;;8.00;74.30;;;;;;4318588;33;43293;-76
2021/03/19 14:29:15;;;;;;;;;;;8.10;74.20;;;;;;4319952;33;20350;-77
2021/03/19 14:31:44;;;;;;;;;;;8.10;73.90;;;;;;4318520;33;39041;-78
2021/03/19 14:34:14;;;;;;;;;;;8.20;74.20;;;;;;4319663;33;20014;-79
2021/03/19 14:36:41;;;;;;;;;;;8.20;74.00;;;;;;4331750;33;44458;-79
2021/03/19 14:39:07;;;;;;;;;;;8.20;74.10;;;;;;4331325;33;44432;-79
2021/03/19 14:41:39;;;;;;;;;;;8.30;74.40;;;;;;4318482;33;44253;-78
2021/03/19 14:44:08;;;;;;;;;;;8.30;74.50;;;;;;4332520;33;20374;-79
2021/03/19 14:46:59;;;;;;;;;;;8.40;74.50;;;;;;4332846;33;20034;-79
2021/03/19 14:49:32;;;;;;;;;;;8.50;74.30;;;;;;4318473;33;33891;-80
2021/03/19 14:52:00;;;;;;;;;;;8.50;74.40;;;;;;4317725;33;44236;-80
2021/03/19 14:54:29;;;;;;;;;;;8.60;74.10;;;;;;4331694;33;32115;-80
2021/03/19 14:56:56;;;;;;;;;;;8.60;74.10;;;;;;4331484;33;43325;-80
2021/03/19 14:59:27;;;;;;;;;;;8.60;73.90;;;;;;4305854;33;45618;-80
2021/03/19 15:01:57;;;;;;;;;;;8.70;73.70;;;;;;4331107;33;43944;-79
2021/03/19 15:04:27;;;;;;;;;;;8.70;73.80;;;;;;4307377;33;20060;-79
2021/03/19 15:06:53;;;;;;;;;;;8.80;73.50;;;;;;4331615;33;41799;-79
2021/03/19 15:09:20;;;;;;;;;;;8.80;73.50;;;;;;4330957;33;39845;-79
2021/03/19 15:11:46;;;;;;;;;;;8.80;73.10;;;;;;4305557;33;41132;-78
2021/03/19 15:14:16;;;;;;;;;;;8.90;73.20;;;;;;4317634;33;43292;-79
2021/03/19 15:16:43;;;;;;;;;;;8.90;72.60;;;;;;4317991;33;42638;-79